Time;durP1;ratioP1;P1;durP2;ratioP2;P2;SDS_P1;SDS_P2;PMS_P1;PMS_P2;Temp;Humidity;BMP_temperature;BMP_pressure;BME280_temperature;BME280_humidity;BME280_pressure;Samples;Min_cycle;Max_cycle;Signal;HPM_P1;HPM_P2
2023/10/28 00:02:05;;;;;;;530.43;218.57;;;;;;;;;;4975017;28;20304;-52
2023/10/28 00:04:32;;;;;;;494.57;199.07;;;;;;;;;;4978609;28;20256;-53
2023/10/28 00:06:58;;;;;;;539.27;222.97;;;;;;;;;;4972477;28;20324;-53
2023/10/28 00:09:24;;;;;;;520.67;210.87;;;;;;;;;;4971898;28;20232;-52
2023/10/28 00:11:50;;;;;;;531.10;216.00;;;;;;;;;;4977365;28;20240;-52
2023/10/28 00:14:19;;;;;;;473.37;183.93;;;;;;;;;;4974023;28;20576;-52
2023/10/28 00:16:48;;;;;;;442.87;167.07;;;;;;;;;;4974848;28;20264;-52
2023/10/28 00:19:14;;;;;;;541.63;219.00;;;;;;;;;;4980110;28;20633;-53
2023/10/28 00:21:40;;;;;;;498.23;193.80;;;;;;;;;;4977279;28;20312;-52
2023/10/28 00:24:06;;;;;;;521.33;209.17;;;;;;;;;;4967599;28;20224;-52
2023/10/28 00:26:32;;;;;;;452.77;172.47;;;;;;;;;;4974784;28;20541;-52
2023/10/28 00:28:58;;;;;;;535.37;213.10;;;;;;;;;;4960468;28;20255;-53
2023/10/28 00:31:24;;;;;;;512.37;204.67;;;;;;;;;;4975879;28;20249;-52
2023/10/28 00:33:51;;;;;;;465.17;182.17;;;;;;;;;;4979275;28;20230;-52
2023/10/28 00:36:17;;;;;;;562.90;232.37;;;;;;;;;;4969042;28;20177;-52
2023/10/28 00:38:43;;;;;;;426.77;163.07;;;;;;;;;;4977683;28;20188;-52
2023/10/28 00:41:09;;;;;;;418.00;160.27;;;;;;;;;;4981363;28;20254;-53
2023/10/28 00:43:35;;;;;;;476.67;183.50;;;;;;;;;;4968133;28;20232;-52
2023/10/28 00:46:03;;;;;;;468.30;186.43;;;;;;;;;;4975387;28;20271;-52
2023/10/28 00:48:30;;;;;;;493.73;192.37;;;;;;;;;;4975881;28;20300;-52
2023/10/28 00:50:57;;;;;;;483.07;189.00;;;;;;;;;;4981392;28;20429;-53
2023/10/28 00:53:25;;;;;;;506.73;199.47;;;;;;;;;;4972895;28;20281;-53
2023/10/28 00:55:52;;;;;;;522.33;209.90;;;;;;;;;;4972284;28;20220;-52
2023/10/28 00:58:22;;;;;;;494.47;194.67;;;;;;;;;;4978194;28;20443;-52
2023/10/28 01:00:49;;;;;;;490.97;197.27;;;;;;;;;;4974829;28;20217;-52
2023/10/28 01:03:16;;;;;;;463.17;180.37;;;;;;;;;;4976996;28;20294;-52
2023/10/28 01:05:41;;;;;;;465.60;185.10;;;;;;;;;;4980338;28;20180;-52
2023/10/28 01:08:09;;;;;;;503.00;203.67;;;;;;;;;;4971587;28;20248;-52
2023/10/28 01:10:35;;;;;;;503.23;201.13;;;;;;;;;;4975412;28;20220;-52
2023/10/28 01:13:04;;;;;;;522.37;215.20;;;;;;;;;;4968229;28;20282;-52
2023/10/28 01:15:30;;;;;;;492.80;195.43;;;;;;;;;;4976842;28;20228;-52
2023/10/28 01:17:59;;;;;;;486.17;188.27;;;;;;;;;;4972899;28;20337;-52
2023/10/28 01:20:25;;;;;;;572.70;242.60;;;;;;;;;;4973190;28;20583;-52
2023/10/28 01:22:51;;;;;;;473.93;188.13;;;;;;;;;;4978823;28;20213;-52
2023/10/28 01:25:17;;;;;;;498.63;195.17;;;;;;;;;;4978581;28;20632;-53
2023/10/28 01:27:44;;;;;;;495.00;196.37;;;;;;;;;;4972009;28;20219;-52
2023/10/28 01:30:13;;;;;;;508.30;206.17;;;;;;;;;;4976753;28;20205;-53
2023/10/28 01:32:40;;;;;;;479.70;189.97;;;;;;;;;;4978705;28;20510;-52
2023/10/28 01:35:09;;;;;;;451.37;177.57;;;;;;;;;;4981811;28;20565;-52
2023/10/28 01:37:37;;;;;;;514.37;210.00;;;;;;;;;;4976792;28;20549;-52
2023/10/28 01:40:07;;;;;;;603.67;254.60;;;;;;;;;;4968675;28;20739;-53
2023/10/28 01:42:33;;;;;;;524.70;217.23;;;;;;;;;;4970962;28;20216;-52
2023/10/28 01:44:59;;;;;;;505.67;199.23;;;;;;;;;;4972875;28;20181;-51
2023/10/28 01:47:26;;;;;;;507.33;199.27;;;;;;;;;;4977699;28;20235;-53
2023/10/28 01:49:53;;;;;;;520.00;208.27;;;;;;;;;;4975117;28;20222;-52
2023/10/28 01:52:19;;;;;;;483.63;188.07;;;;;;;;;;4973334;28;20225;-53
2023/10/28 01:54:45;;;;;;;478.50;181.17;;;;;;;;;;4972310;28;20270;-53
2023/10/28 01:57:11;;;;;;;475.70;188.20;;;;;;;;;;4982641;28;20572;-52
2023/10/28 01:59:38;;;;;;;482.80;192.30;;;;;;;;;;4976609;28;20703;-52
2023/10/28 02:02:04;;;;;;;482.00;192.20;;;;;;;;;;4974116;28;20209;-52
2023/10/28 02:04:30;;;;;;;479.97;186.40;;;;;;;;;;4978952;28;20228;-53
2023/10/28 02:06:57;;;;;;;471.30;185.20;;;;;;;;;;4968473;28;20305;-52
2023/10/28 02:09:23;;;;;;;476.07;186.83;;;;;;;;;;4976555;28;20228;-52
2023/10/28 02:11:52;;;;;;;484.87;197.03;;;;;;;;;;4972336;28;20655;-52
2023/10/28 02:14:18;;;;;;;500.97;203.50;;;;;;;;;;4965664;28;20534;-52
2023/10/28 02:16:44;;;;;;;459.67;181.80;;;;;;;;;;4974470;28;20232;-52
2023/10/28 02:19:10;;;;;;;477.47;194.70;;;;;;;;;;4976492;28;20696;-52
2023/10/28 02:21:36;;;;;;;474.33;182.23;;;;;;;;;;4976659;28;20208;-53
2023/10/28 02:24:03;;;;;;;466.57;181.77;;;;;;;;;;4968825;28;20241;-53
2023/10/28 02:26:29;;;;;;;476.93;183.23;;;;;;;;;;4979115;28;20952;-52
2023/10/28 02:28:55;;;;;;;495.60;200.50;;;;;;;;;;4972317;28;20684;-53
2023/10/28 02:31:21;;;;;;;500.67;200.53;;;;;;;;;;4981445;28;20286;-53
2023/10/28 02:33:47;;;;;;;451.90;175.40;;;;;;;;;;4974289;28;20252;-51
2023/10/28 02:36:13;;;;;;;535.90;218.80;;;;;;;;;;4973114;28;20343;-51
2023/10/28 02:38:42;;;;;;;448.63;174.80;;;;;;;;;;4981784;28;20189;-52
2023/10/28 02:41:08;;;;;;;462.67;186.37;;;;;;;;;;5005192;22;20340;-68
2023/10/28 02:43:35;;;;;;;430.90;165.67;;;;;;;;;;4999835;28;20229;-68
2023/10/28 02:46:01;;;;;;;459.53;182.97;;;;;;;;;;4991604;28;20257;-68
2023/10/28 02:48:27;;;;;;;456.50;183.47;;;;;;;;;;5001236;28;20223;-68
2023/10/28 02:50:53;;;;;;;440.47;175.03;;;;;;;;;;4996113;28;20737;-68
2023/10/28 02:53:19;;;;;;;422.10;166.33;;;;;;;;;;4998247;28;20228;-67
2023/10/28 02:55:45;;;;;;;423.43;166.27;;;;;;;;;;4999094;28;20205;-67
2023/10/28 02:58:12;;;;;;;461.20;182.67;;;;;;;;;;4999013;28;20239;-68
2023/10/28 03:00:37;;;;;;;448.33;173.80;;;;;;;;;;5001578;28;20212;-68
2023/10/28 03:03:04;;;;;;;446.33;175.47;;;;;;;;;;4996425;28;20185;-68
2023/10/28 03:05:30;;;;;;;473.03;192.80;;;;;;;;;;5000613;28;20994;-68
2023/10/28 03:07:56;;;;;;;431.70;170.13;;;;;;;;;;4998605;28;20231;-68
2023/10/28 03:10:22;;;;;;;438.27;169.93;;;;;;;;;;4997977;28;20231;-69
2023/10/28 03:12:48;;;;;;;443.37;171.70;;;;;;;;;;4995585;28;20224;-68
2023/10/28 03:15:14;;;;;;;457.10;186.50;;;;;;;;;;4998062;28;20197;-68
2023/10/28 03:17:40;;;;;;;440.70;166.37;;;;;;;;;;5000573;28;20274;-68
2023/10/28 03:20:11;;;;;;;489.43;196.60;;;;;;;;;;4997269;28;20216;-68
2023/10/28 03:22:37;;;;;;;481.83;189.53;;;;;;;;;;4993173;28;20231;-68
2023/10/28 03:25:03;;;;;;;485.40;187.47;;;;;;;;;;4995779;28;20208;-68
2023/10/28 03:27:30;;;;;;;520.17;211.00;;;;;;;;;;4995892;28;20220;-69
2023/10/28 03:29:56;;;;;;;450.23;176.47;;;;;;;;;;4999073;28;20592;-69
2023/10/28 03:32:22;;;;;;;437.20;167.80;;;;;;;;;;4999077;28;20241;-67
2023/10/28 03:34:48;;;;;;;420.80;161.00;;;;;;;;;;5000102;28;20315;-69
2023/10/28 03:37:14;;;;;;;448.93;174.87;;;;;;;;;;4997629;28;20213;-68
2023/10/28 03:39:40;;;;;;;461.40;181.30;;;;;;;;;;4993586;28;20222;-68
2023/10/28 03:42:11;;;;;;;452.43;179.00;;;;;;;;;;4999624;28;20303;-68
2023/10/28 03:44:37;;;;;;;437.70;171.17;;;;;;;;;;4992844;28;20188;-68
2023/10/28 03:47:04;;;;;;;433.93;170.70;;;;;;;;;;4997898;28;20212;-68
2023/10/28 03:49:30;;;;;;;439.23;173.47;;;;;;;;;;4994927;28;20220;-68
2023/10/28 03:51:56;;;;;;;432.37;171.53;;;;;;;;;;4998702;28;21066;-68
2023/10/28 03:54:22;;;;;;;463.23;180.57;;;;;;;;;;4993116;28;20252;-68
2023/10/28 03:56:48;;;;;;;452.43;182.43;;;;;;;;;;4996073;28;20197;-68
2023/10/28 03:59:15;;;;;;;456.87;181.77;;;;;;;;;;4997783;28;20247;-68
2023/10/28 04:01:41;;;;;;;415.90;159.77;;;;;;;;;;4996310;28;20224;-68
2023/10/28 04:04:06;;;;;;;436.70;170.80;;;;;;;;;;4996155;28;20213;-68
2023/10/28 04:06:32;;;;;;;424.67;168.70;;;;;;;;;;4998421;28;20217;-68
2023/10/28 04:08:59;;;;;;;438.17;168.77;;;;;;;;;;4999416;28;20189;-68
2023/10/28 04:11:25;;;;;;;439.53;173.17;;;;;;;;;;4999982;28;20272;-68
2023/10/28 04:13:51;;;;;;;464.17;177.10;;;;;;;;;;4995375;28;20232;-67
2023/10/28 04:16:17;;;;;;;475.30;186.40;;;;;;;;;;4994175;28;20603;-68
2023/10/28 04:18:43;;;;;;;460.10;180.67;;;;;;;;;;5001612;28;20209;-68
2023/10/28 04:21:09;;;;;;;456.43;176.03;;;;;;;;;;4999064;28;20404;-67
2023/10/28 04:23:35;;;;;;;496.47;197.67;;;;;;;;;;4994941;28;20264;-68
2023/10/28 04:26:02;;;;;;;452.50;180.23;;;;;;;;;;4996361;28;20211;-69
2023/10/28 04:28:28;;;;;;;476.77;196.47;;;;;;;;;;4993645;28;20213;-68
2023/10/28 04:30:57;;;;;;;431.87;173.67;;;;;;;;;;4996124;28;20228;-68
2023/10/28 04:33:24;;;;;;;481.90;188.13;;;;;;;;;;4995039;28;20220;-68
2023/10/28 04:35:52;;;;;;;462.77;181.27;;;;;;;;;;4997670;28;20928;-68
2023/10/28 04:38:18;;;;;;;498.93;202.00;;;;;;;;;;4994398;28;20220;-68
2023/10/28 04:40:44;;;;;;;405.73;156.00;;;;;;;;;;4994546;28;20212;-68
2023/10/28 04:43:10;;;;;;;444.70;174.57;;;;;;;;;;4993961;28;21014;-68
2023/10/28 04:45:36;;;;;;;473.10;191.00;;;;;;;;;;4993574;28;20242;-68
2023/10/28 04:48:01;;;;;;;395.13;150.03;;;;;;;;;;5000322;28;20208;-68
2023/10/28 04:50:29;;;;;;;485.83;189.80;;;;;;;;;;5014507;28;20231;-68
2023/10/28 04:52:55;;;;;;;463.93;178.07;;;;;;;;;;5006615;28;20328;-68
2023/10/28 04:55:22;;;;;;;452.93;173.67;;;;;;;;;;5014004;28;20306;-68
2023/10/28 04:57:47;;;;;;;425.73;160.17;;;;;;;;;;5016958;28;20231;-68
2023/10/28 05:00:13;;;;;;;474.27;185.00;;;;;;;;;;5011377;28;20816;-68
2023/10/28 05:02:39;;;;;;;425.57;162.60;;;;;;;;;;5015199;28;20176;-68
2023/10/28 05:05:06;;;;;;;468.47;181.73;;;;;;;;;;5018662;28;20281;-68
2023/10/28 05:07:33;;;;;;;459.83;178.73;;;;;;;;;;5013118;28;20235;-68
2023/10/28 05:09:59;;;;;;;467.03;179.13;;;;;;;;;;5011210;28;20208;-68
2023/10/28 05:12:25;;;;;;;507.47;204.50;;;;;;;;;;5013962;28;20228;-68
2023/10/28 05:14:51;;;;;;;420.23;160.00;;;;;;;;;;5014956;28;20868;-68
2023/10/28 05:17:17;;;;;;;488.13;191.87;;;;;;;;;;5021852;28;20263;-68
2023/10/28 05:19:43;;;;;;;452.17;172.23;;;;;;;;;;5010305;28;20713;-68
2023/10/28 05:22:09;;;;;;;448.50;174.70;;;;;;;;;;5019149;28;20212;-67
2023/10/28 05:24:35;;;;;;;457.27;174.43;;;;;;;;;;5011473;28;20690;-67
2023/10/28 05:27:01;;;;;;;451.90;170.30;;;;;;;;;;5015925;28;20636;-67
2023/10/28 05:29:27;;;;;;;447.67;168.30;;;;;;;;;;5010100;28;20291;-68
2023/10/28 05:31:56;;;;;;;468.83;180.10;;;;;;;;;;5008937;28;20327;-68
2023/10/28 05:34:23;;;;;;;516.00;203.37;;;;;;;;;;5008102;28;20211;-68
2023/10/28 05:36:49;;;;;;;455.03;174.17;;;;;;;;;;5014447;28;20207;-68
2023/10/28 05:39:15;;;;;;;480.47;192.77;;;;;;;;;;5012288;28;20263;-68
2023/10/28 05:41:41;;;;;;;447.60;165.73;;;;;;;;;;5011626;28;20591;-68
2023/10/28 05:44:07;;;;;;;417.03;158.60;;;;;;;;;;5015857;28;20790;-68
2023/10/28 05:46:33;;;;;;;515.47;200.63;;;;;;;;;;5014632;28;20220;-67
2023/10/28 05:49:00;;;;;;;437.77;164.90;;;;;;;;;;5016163;28;20203;-68
2023/10/28 05:51:27;;;;;;;508.77;206.33;;;;;;;;;;5007958;28;20218;-78
2023/10/28 05:53:52;;;;;;;444.17;172.07;;;;;;;;;;5010646;28;20227;-79
2023/10/28 05:56:19;;;;;;;454.40;174.67;;;;;;;;;;5015723;28;20220;-78
2023/10/28 05:58:45;;;;;;;410.70;157.17;;;;;;;;;;5020045;28;20212;-78
2023/10/28 06:01:13;;;;;;;435.43;165.77;;;;;;;;;;5015405;28;20223;-79
2023/10/28 06:03:39;;;;;;;443.67;171.30;;;;;;;;;;5011276;28;20347;-77
2023/10/28 06:06:05;;;;;;;459.43;181.27;;;;;;;;;;5011348;28;20275;-80
2023/10/28 06:08:31;;;;;;;458.87;177.67;;;;;;;;;;5045949;28;20188;-77
2023/10/28 06:10:57;;;;;;;445.03;170.37;;;;;;;;;;5020182;28;20207;-80
2023/10/28 06:13:23;;;;;;;459.83;178.23;;;;;;;;;;5023731;28;20216;-77
2023/10/28 06:15:49;;;;;;;408.97;157.40;;;;;;;;;;5017680;28;20294;-77
2023/10/28 06:18:15;;;;;;;419.77;160.80;;;;;;;;;;5017973;28;20663;-77
2023/10/28 06:20:42;;;;;;;519.63;215.90;;;;;;;;;;5014242;28;20200;-78
2023/10/28 06:23:08;;;;;;;455.53;171.73;;;;;;;;;;5006706;28;20664;-79
2023/10/28 06:25:37;;;;;;;509.57;202.50;;;;;;;;;;5019049;28;20220;-78
2023/10/28 06:28:05;;;;;;;417.40;161.33;;;;;;;;;;5011277;28;20571;-78
2023/10/28 06:30:31;;;;;;;462.93;178.27;;;;;;;;;;5014580;28;20953;-78
2023/10/28 06:32:58;;;;;;;431.10;168.67;;;;;;;;;;5026107;28;20218;-77
2023/10/28 06:35:25;;;;;;;503.67;204.37;;;;;;;;;;4982467;28;20230;-76
2023/10/28 06:37:51;;;;;;;494.57;196.87;;;;;;;;;;5006482;28;21153;-77
2023/10/28 06:40:17;;;;;;;445.53;179.03;;;;;;;;;;5014599;28;20218;-76
2023/10/28 06:42:44;;;;;;;467.33;182.93;;;;;;;;;;5013650;28;20310;-76
2023/10/28 06:45:10;;;;;;;462.23;185.57;;;;;;;;;;5015368;28;20503;-76
2023/10/28 06:47:36;;;;;;;493.67;196.07;;;;;;;;;;5016039;28;20243;-75
2023/10/28 06:50:06;;;;;;;484.97;190.03;;;;;;;;;;5021770;28;20235;-75
2023/10/28 06:52:32;;;;;;;493.07;200.60;;;;;;;;;;5005770;28;21429;-77
2023/10/28 06:54:59;;;;;;;464.33;186.43;;;;;;;;;;5021391;28;20235;-76
2023/10/28 06:57:25;;;;;;;508.87;215.77;;;;;;;;;;5006895;28;20220;-75
2023/10/28 06:59:51;;;;;;;452.47;180.60;;;;;;;;;;5010871;28;20182;-77
2023/10/28 07:02:17;;;;;;;451.80;170.83;;;;;;;;;;5017496;28;20277;-76
2023/10/28 07:04:43;;;;;;;475.93;187.50;;;;;;;;;;5016336;28;20837;-77
2023/10/28 07:07:13;;;;;;;462.27;182.50;;;;;;;;;;5013279;28;20212;-76
2023/10/28 07:09:39;;;;;;;497.10;207.87;;;;;;;;;;5014409;28;20246;-79
2023/10/28 07:12:05;;;;;;;449.73;181.20;;;;;;;;;;5024405;28;20534;-79
2023/10/28 07:14:31;;;;;;;495.77;205.10;;;;;;;;;;5010727;28;20541;-81
2023/10/28 07:16:59;;;;;;;441.83;175.83;;;;;;;;;;5015348;28;20283;-78
2023/10/28 07:19:25;;;;;;;488.17;196.33;;;;;;;;;;5012547;28;20726;-76
2023/10/28 07:21:51;;;;;;;453.90;181.87;;;;;;;;;;5005176;28;20580;-77
2023/10/28 07:24:17;;;;;;;531.53;221.07;;;;;;;;;;5011964;28;20185;-74
2023/10/28 07:26:43;;;;;;;448.37;179.43;;;;;;;;;;5011004;28;20207;-81
2023/10/28 07:29:09;;;;;;;457.20;181.43;;;;;;;;;;5009269;28;20713;-78
2023/10/28 07:31:38;;;;;;;468.43;193.90;;;;;;;;;;5010740;28;20238;-78
2023/10/28 07:34:04;;;;;;;436.63;178.07;;;;;;;;;;5016288;28;20224;-77
2023/10/28 07:36:32;;;;;;;443.67;176.50;;;;;;;;;;5014889;28;20823;-77
2023/10/28 07:39:00;;;;;;;411.50;159.53;;;;;;;;;;5015320;28;20842;-79
2023/10/28 07:41:26;;;;;;;488.30;202.57;;;;;;;;;;5031836;28;20242;-82
2023/10/28 07:43:53;;;;;;;397.10;153.73;;;;;;;;;;5017879;28;20742;-79
2023/10/28 07:46:19;;;;;;;434.40;168.80;;;;;;;;;;5029790;28;20251;-76
2023/10/28 07:48:45;;;;;;;430.33;170.63;;;;;;;;;;5020593;28;20230;-76
2023/10/28 07:51:16;;;;;;;433.07;169.17;;;;;;;;;;5009931;28;20788;-80
2023/10/28 07:53:42;;;;;;;452.30;179.00;;;;;;;;;;5007051;28;20303;-70
2023/10/28 07:56:09;;;;;;;498.60;197.93;;;;;;;;;;5014211;28;22588;-71
2023/10/28 07:58:36;;;;;;;487.03;190.00;;;;;;;;;;5012116;28;20236;-69
2023/10/28 08:01:03;;;;;;;488.63;196.33;;;;;;;;;;5017796;28;20338;-70
2023/10/28 08:03:30;;;;;;;484.37;189.17;;;;;;;;;;5015292;28;20314;-70
2023/10/28 08:05:56;;;;;;;462.47;190.70;;;;;;;;;;5016973;28;21271;-69
2023/10/28 08:08:22;;;;;;;496.03;210.03;;;;;;;;;;5020532;28;20406;-69
2023/10/28 08:10:48;;;;;;;458.10;182.33;;;;;;;;;;5004554;28;20220;-79
2023/10/28 08:13:19;;;;;;;441.30;171.83;;;;;;;;;;5026131;28;20586;-79
2023/10/28 08:15:45;;;;;;;475.40;189.63;;;;;;;;;;4995977;28;20219;-79
2023/10/28 08:18:11;;;;;;;440.87;174.97;;;;;;;;;;5034841;28;20398;-79
2023/10/28 08:20:40;;;;;;;483.70;189.20;;;;;;;;;;5012872;28;21853;-79
2023/10/28 08:23:06;;;;;;;459.73;177.43;;;;;;;;;;5009324;28;20219;-79
2023/10/28 08:25:33;;;;;;;499.90;212.37;;;;;;;;;;5011712;28;20265;-79
2023/10/28 08:27:59;;;;;;;434.50;174.20;;;;;;;;;;5009955;28;20272;-80
2023/10/28 08:30:26;;;;;;;468.47;193.60;;;;;;;;;;5033477;28;20242;-81
2023/10/28 08:32:54;;;;;;;438.07;169.90;;;;;;;;;;5029063;28;20203;-80
2023/10/28 08:35:28;;;;;;;461.27;183.23;;;;;;;;;;5034686;28;20243;-81
2023/10/28 08:37:54;;;;;;;452.00;176.17;;;;;;;;;;5038630;28;20315;-82
2023/10/28 08:40:20;;;;;;;488.77;194.40;;;;;;;;;;5031532;28;20199;-80
2023/10/28 08:42:46;;;;;;;459.80;187.67;;;;;;;;;;5012947;28;20813;-81
2023/10/28 08:45:14;;;;;;;475.43;194.57;;;;;;;;;;5015371;28;21262;-80
2023/10/28 08:47:41;;;;;;;483.77;195.07;;;;;;;;;;5011561;28;20272;-80
2023/10/28 08:50:10;;;;;;;476.60;194.20;;;;;;;;;;5012807;28;20250;-79
2023/10/28 08:52:36;;;;;;;494.53;203.40;;;;;;;;;;5005528;28;20228;-80
2023/10/28 08:55:03;;;;;;;470.83;188.90;;;;;;;;;;5015973;28;20310;-81
2023/10/28 08:57:30;;;;;;;485.07;196.20;;;;;;;;;;5011641;28;20216;-80
2023/10/28 08:59:56;;;;;;;452.37;183.33;;;;;;;;;;5012611;28;20203;-80
2023/10/28 09:02:24;;;;;;;453.23;182.23;;;;;;;;;;5013611;28;20270;-81
2023/10/28 09:04:52;;;;;;;440.23;173.07;;;;;;;;;;5023677;28;20219;-80
2023/10/28 09:07:18;;;;;;;458.80;188.40;;;;;;;;;;5006599;28;20397;-79
2023/10/28 09:09:44;;;;;;;448.83;185.87;;;;;;;;;;5002874;28;20228;-79
2023/10/28 09:12:10;;;;;;;430.33;174.13;;;;;;;;;;5005392;28;20200;-79
2023/10/28 09:14:37;;;;;;;458.67;190.07;;;;;;;;;;5004043;28;20215;-78
2023/10/28 09:17:03;;;;;;;455.47;186.57;;;;;;;;;;5006592;28;20216;-78
2023/10/28 09:19:30;;;;;;;485.03;198.70;;;;;;;;;;5010529;28;20238;-78
2023/10/28 09:21:56;;;;;;;466.47;189.87;;;;;;;;;;5006610;28;20212;-79
2023/10/28 09:24:23;;;;;;;467.07;193.60;;;;;;;;;;5013416;28;20282;-80
2023/10/28 09:26:50;;;;;;;473.67;198.00;;;;;;;;;;5010135;28;20208;-79
2023/10/28 09:29:24;;;;;;;462.00;190.60;;;;;;;;;;5006175;28;20313;-80
2023/10/28 09:31:50;;;;;;;508.33;212.10;;;;;;;;;;5015645;28;20674;-78
2023/10/28 09:34:16;;;;;;;470.77;189.53;;;;;;;;;;5017854;28;20231;-79
2023/10/28 09:36:42;;;;;;;506.50;211.07;;;;;;;;;;5008932;28;20220;-78
2023/10/28 09:39:09;;;;;;;480.03;196.70;;;;;;;;;;5003307;28;20283;-81
2023/10/28 09:41:35;;;;;;;445.87;180.17;;;;;;;;;;5011336;28;20203;-74
2023/10/28 09:44:03;;;;;;;435.80;172.70;;;;;;;;;;5017999;28;20219;-76
2023/10/28 09:46:31;;;;;;;467.33;194.60;;;;;;;;;;5011930;28;20224;-78
2023/10/28 09:48:59;;;;;;;493.50;204.67;;;;;;;;;;5015787;28;20691;-77
2023/10/28 09:51:27;;;;;;;474.73;189.33;;;;;;;;;;5002403;28;20223;-77
2023/10/28 09:54:00;;;;;;;472.27;188.20;;;;;;;;;;5012465;28;20215;-80
2023/10/28 09:56:28;;;;;;;458.60;187.40;;;;;;;;;;5018427;28;20215;-85
2023/10/28 09:59:02;;;;;;;478.47;197.07;;;;;;;;;;5017838;28;20219;-79
2023/10/28 10:01:37;;;;;;;481.43;196.87;;;;;;;;;;5016896;28;20349;-83
2023/10/28 10:04:16;;;;;;;446.97;183.33;;;;;;;;;;5022172;28;20219;-79
2023/10/28 10:06:43;;;;;;;502.03;211.00;;;;;;;;;;5020282;28;20222;-81
2023/10/28 10:09:12;;;;;;;431.77;173.40;;;;;;;;;;5018558;28;20184;-79
2023/10/28 10:11:42;;;;;;;474.87;196.30;;;;;;;;;;5009716;28;20202;-75
2023/10/28 10:14:12;;;;;;;430.77;170.77;;;;;;;;;;5011670;28;20270;-75
2023/10/28 10:16:44;;;;;;;445.70;176.03;;;;;;;;;;5011935;28;20796;-72
2023/10/28 10:19:11;;;;;;;446.47;173.70;;;;;;;;;;5014185;28;20269;-74
2023/10/28 10:21:37;;;;;;;611.27;275.27;;;;;;;;;;5017435;28;20220;-81
2023/10/28 10:24:04;;;;;;;464.93;183.30;;;;;;;;;;5016314;28;20204;-77
2023/10/28 10:26:34;;;;;;;469.80;182.57;;;;;;;;;;5025651;28;20208;-76
2023/10/28 10:29:03;;;;;;;439.90;171.40;;;;;;;;;;5026601;28;20230;-79
2023/10/28 10:31:33;;;;;;;473.47;187.37;;;;;;;;;;5013495;28;20224;-79
2023/10/28 10:33:59;;;;;;;464.67;184.83;;;;;;;;;;5008252;28;20228;-73
2023/10/28 10:36:28;;;;;;;464.23;184.50;;;;;;;;;;5012088;28;20224;-71
2023/10/28 10:38:54;;;;;;;510.80;206.60;;;;;;;;;;5005304;28;20188;-72
2023/10/28 10:41:27;;;;;;;526.60;214.67;;;;;;;;;;5005628;28;20212;-72
2023/10/28 10:43:53;;;;;;;491.97;201.30;;;;;;;;;;5013521;28;20271;-73
2023/10/28 10:46:20;;;;;;;482.90;197.60;;;;;;;;;;4999850;28;20310;-72
2023/10/28 10:48:49;;;;;;;490.20;207.03;;;;;;;;;;5013635;28;20204;-72
2023/10/28 10:51:15;;;;;;;509.13;217.03;;;;;;;;;;5008798;28;20239;-72
2023/10/28 10:53:44;;;;;;;484.33;194.77;;;;;;;;;;5009991;28;20270;-71
2023/10/28 10:56:22;;;;;;;543.20;229.97;;;;;;;;;;4991396;28;20274;-72
2023/10/28 10:58:48;;;;;;;499.07;209.63;;;;;;;;;;5000943;28;20223;-73
2023/10/28 11:01:15;;;;;;;455.67;187.53;;;;;;;;;;5011042;28;20212;-73
2023/10/28 11:03:41;;;;;;;478.30;194.70;;;;;;;;;;5006398;28;20396;-73
2023/10/28 11:06:07;;;;;;;505.13;216.90;;;;;;;;;;5000285;28;20180;-73
2023/10/28 11:08:34;;;;;;;483.67;198.17;;;;;;;;;;5005660;28;20902;-73
2023/10/28 11:11:03;;;;;;;516.87;215.43;;;;;;;;;;5002751;28;20262;-73
2023/10/28 11:13:29;;;;;;;519.50;216.97;;;;;;;;;;4999307;28;20263;-73
2023/10/28 11:15:55;;;;;;;492.70;204.10;;;;;;;;;;5010206;28;20314;-73
2023/10/28 11:18:21;;;;;;;545.83;234.80;;;;;;;;;;5006717;28;20251;-73
2023/10/28 11:20:49;;;;;;;511.23;219.97;;;;;;;;;;5007177;28;20196;-73
2023/10/28 11:23:16;;;;;;;488.53;205.20;;;;;;;;;;4995808;28;20216;-75
2023/10/28 11:25:43;;;;;;;466.53;194.77;;;;;;;;;;5004623;28;20219;-74
2023/10/28 11:28:10;;;;;;;470.60;194.90;;;;;;;;;;5008854;28;20212;-74
2023/10/28 11:30:37;;;;;;;503.03;212.20;;;;;;;;;;5000568;28;20760;-74
2023/10/28 11:33:07;;;;;;;470.67;196.63;;;;;;;;;;5008667;28;20343;-74
2023/10/28 11:35:34;;;;;;;470.50;195.50;;;;;;;;;;5006288;28;20238;-75
2023/10/28 11:38:02;;;;;;;458.20;188.30;;;;;;;;;;5005277;28;20740;-75
2023/10/28 11:40:28;;;;;;;502.60;211.33;;;;;;;;;;4999317;28;20250;-74
2023/10/28 11:42:54;;;;;;;530.00;224.60;;;;;;;;;;4996516;28;20324;-74
2023/10/28 11:45:20;;;;;;;538.07;231.77;;;;;;;;;;4998138;28;20931;-74
2023/10/28 11:47:46;;;;;;;501.17;212.03;;;;;;;;;;5001040;28;20466;-73
2023/10/28 11:50:12;;;;;;;487.97;200.20;;;;;;;;;;4996702;28;20212;-73
2023/10/28 11:52:38;;;;;;;462.37;189.23;;;;;;;;;;4999949;28;20228;-74
2023/10/28 11:55:05;;;;;;;521.17;221.90;;;;;;;;;;5006211;28;22637;-74
2023/10/28 11:57:34;;;;;;;508.93;211.57;;;;;;;;;;5006180;28;20273;-74
2023/10/28 12:00:00;;;;;;;486.53;205.97;;;;;;;;;;5006423;28;20250;-74
2023/10/28 12:02:26;;;;;;;491.47;208.33;;;;;;;;;;5009337;28;20224;-74
2023/10/28 12:04:51;;;;;;;517.83;216.43;;;;;;;;;;5008904;28;20235;-73
2023/10/28 12:07:18;;;;;;;541.10;229.60;;;;;;;;;;5005272;28;20224;-72
2023/10/28 12:09:44;;;;;;;465.13;190.27;;;;;;;;;;5004818;28;20214;-70
2023/10/28 12:12:10;;;;;;;482.13;200.30;;;;;;;;;;5013601;28;20658;-77
2023/10/28 12:14:36;;;;;;;469.37;194.67;;;;;;;;;;5008737;28;20271;-78
2023/10/28 12:17:02;;;;;;;473.67;197.60;;;;;;;;;;5012055;28;20212;-78
2023/10/28 12:19:28;;;;;;;450.80;184.07;;;;;;;;;;5013234;28;20219;-79
2023/10/28 12:21:54;;;;;;;380.53;164.77;;;;;;;;;;5009924;28;20240;-79
2023/10/28 12:24:20;;;;;;;382.37;165.77;;;;;;;;;;5028810;28;20940;-80
2023/10/28 12:26:46;;;;;;;417.43;184.50;;;;;;;;;;5013216;28;20686;-80
2023/10/28 12:29:13;;;;;;;379.70;164.53;;;;;;;;;;5025804;28;20216;-79
2023/10/28 12:31:39;;;;;;;383.40;164.37;;;;;;;;;;5029118;28;20222;-79
2023/10/28 12:34:05;;;;;;;402.33;181.53;;;;;;;;;;5028144;28;20235;-79
2023/10/28 12:36:31;;;;;;;383.03;168.87;;;;;;;;;;5018451;28;20716;-79
2023/10/28 12:38:57;;;;;;;377.97;166.03;;;;;;;;;;5028512;28;20661;-79
2023/10/28 12:41:23;;;;;;;399.00;178.10;;;;;;;;;;5027349;28;20244;-78
2023/10/28 12:43:49;;;;;;;373.27;164.63;;;;;;;;;;5015513;28;20220;-79
2023/10/28 12:46:15;;;;;;;376.10;164.47;;;;;;;;;;5015294;28;20216;-78
2023/10/28 12:48:41;;;;;;;375.93;166.47;;;;;;;;;;5027586;28;20702;-78
2023/10/28 12:51:08;;;;;;;401.10;184.90;;;;;;;;;;5025062;28;20199;-78
2023/10/28 12:53:34;;;;;;;376.97;167.37;;;;;;;;;;5016415;28;20261;-79
2023/10/28 12:56:02;;;;;;;489.70;225.47;;;;;;;;;;5016205;28;20224;-78
2023/10/28 12:58:28;;;;;;;451.33;195.73;;;;;;;;;;5008725;28;20273;-79
2023/10/28 13:00:54;;;;;;;479.77;214.20;;;;;;;;;;5005271;28;20212;-75
2023/10/28 13:03:21;;;;;;;478.03;215.57;;;;;;;;;;5008836;28;20337;-79
2023/10/28 13:05:47;;;;;;;491.03;217.67;;;;;;;;;;5011385;28;20193;-80
2023/10/28 13:08:13;;;;;;;477.47;203.47;;;;;;;;;;5011874;28;20242;-80
2023/10/28 13:10:39;;;;;;;489.80;211.93;;;;;;;;;;5007579;28;20220;-80
2023/10/28 13:13:05;;;;;;;497.23;216.03;;;;;;;;;;5013084;28;20234;-79
2023/10/28 13:15:32;;;;;;;499.87;220.93;;;;;;;;;;5011042;28;20216;-79
2023/10/28 13:17:58;;;;;;;508.97;221.50;;;;;;;;;;5015316;28;20208;-80
2023/10/28 13:20:28;;;;;;;457.50;188.93;;;;;;;;;;5019097;28;21234;-81
2023/10/28 13:22:54;;;;;;;493.77;210.13;;;;;;;;;;5015533;28;20598;-79
2023/10/28 13:25:20;;;;;;;495.83;212.23;;;;;;;;;;5006160;28;20220;-78
2023/10/28 13:27:46;;;;;;;497.97;214.03;;;;;;;;;;5002226;28;20250;-77
2023/10/28 13:30:13;;;;;;;484.07;210.37;;;;;;;;;;5006327;28;20275;-79
2023/10/28 13:32:39;;;;;;;469.50;199.87;;;;;;;;;;5014954;28;20212;-80
2023/10/28 13:35:05;;;;;;;491.50;211.63;;;;;;;;;;5021165;28;21099;-79
2023/10/28 13:37:31;;;;;;;482.53;204.70;;;;;;;;;;5013992;28;20326;-78
2023/10/28 13:39:57;;;;;;;483.63;205.47;;;;;;;;;;5015901;28;20295;-79
2023/10/28 13:42:23;;;;;;;530.57;235.13;;;;;;;;;;5007171;28;20228;-78
2023/10/28 13:44:50;;;;;;;468.37;201.23;;;;;;;;;;5011454;28;20215;-78
2023/10/28 13:47:16;;;;;;;480.47;206.23;;;;;;;;;;5044552;28;20216;-79
2023/10/28 13:49:42;;;;;;;479.63;206.17;;;;;;;;;;5017181;28;20598;-79